Time;durP1;ratioP1;P1;durP2;ratioP2;P2;SDS_P1;SDS_P2;PMS_P1;PMS_P2;Temp;Humidity;BMP_temperature;BMP_pressure;BME280_temperature;BME280_humidity;BME280_pressure;Samples;Min_cycle;Max_cycle;Signal;HPM_P1;HPM_P2
2024/01/31 00:02:02;;;;;;;5.47;2.10;;;;;;;6.31;100.00;102392.22;6086608;28;20033;-76
2024/01/31 00:04:59;;;;;;;4.45;1.83;;;;;;;6.38;100.00;102401.53;6087060;28;20112;-76
2024/01/31 00:07:54;;;;;;;5.15;1.75;;;;;;;6.37;100.00;102400.69;6071363;28;20040;-76
2024/01/31 00:10:50;;;;;;;6.90;2.15;;;;;;;6.37;100.00;102399.81;6108539;28;20476;-75
2024/01/31 00:13:48;;;;;;;6.00;2.20;;;;;;;6.35;100.00;102401.69;6104454;28;20073;-78
2024/01/31 00:17:13;;;;;;;6.38;2.33;;;;;;;6.34;100.00;102410.50;6102603;28;20028;-79
2024/01/31 00:20:10;;;;;;;7.43;2.50;;;;;;;6.28;100.00;102409.03;6089306;28;20024;-77
2024/01/31 00:23:06;;;;;;;6.95;2.55;;;;;;;6.22;100.00;102405.88;6096856;28;20065;-76
2024/01/31 00:26:04;;;;;;;6.22;2.47;;;;;;;6.24;100.00;102419.81;6098884;28;20082;-78
2024/01/31 00:30:00;;;;;;;7.03;2.53;;;;;;;6.20;100.00;102411.22;6096720;28;20048;-77
2024/01/31 00:32:55;;;;;;;6.75;2.72;;;;;;;6.24;100.00;102427.72;6081932;28;20045;-77
2024/01/31 00:35:53;;;;;;;3.93;1.87;;;;;;;6.25;100.00;102422.38;6096133;28;20072;-77
2024/01/31 00:38:51;;;;;;;5.13;2.22;;;;;;;6.18;100.00;102426.25;6098708;28;20384;-78
2024/01/31 00:41:47;;;;;;;5.60;1.52;;;;;;;6.34;100.00;102434.22;6086116;28;20041;-75
2024/01/31 00:44:48;;;;;;;5.63;1.77;;;;;;;6.35;100.00;102426.25;6075095;28;20035;-77
2024/01/31 00:47:44;;;;;;;3.30;1.30;;;;;;;6.40;100.00;102436.56;6103201;28;20028;-76
2024/01/31 00:50:42;;;;;;;5.28;1.50;;;;;;;6.31;100.00;102415.94;6085154;28;20071;-77
2024/01/31 00:53:51;;;;;;;4.25;1.23;;;;;;;6.26;100.00;102433.75;6069977;28;20044;-78
2024/01/31 00:56:47;;;;;;;2.67;1.17;;;;;;;6.26;100.00;102423.22;6066558;28;20025;-77
2024/01/31 00:59:51;;;;;;;3.05;1.35;;;;;;;6.32;100.00;102439.59;6096037;28;20055;-77
2024/01/31 01:02:46;;;;;;;2.95;1.05;;;;;;;6.23;100.00;102421.59;6081709;28;20123;-77
2024/01/31 01:05:42;;;;;;;2.87;1.30;;;;;;;6.28;100.00;102437.16;6079616;28;20037;-77
2024/01/31 01:08:37;;;;;;;5.65;1.55;;;;;;;6.27;100.00;102435.47;6064264;28;20356;-77
2024/01/31 01:15:23;;;;;;;1.85;0.95;;;;;;;6.16;100.00;102428.09;6089215;28;20036;-79
2024/01/31 01:18:18;;;;;;;3.50;1.38;;;;;;;6.23;100.00;102447.94;6086761;28;20033;-77
2024/01/31 01:21:36;;;;;;;4.67;1.97;;;;;;;6.14;100.00;102437.00;6077075;28;20074;-78
2024/01/31 01:24:35;;;;;;;4.70;1.98;;;;;;;6.02;100.00;102422.66;6091738;28;20327;-78
2024/01/31 01:27:57;;;;;;;2.95;1.30;;;;;;;6.14;100.00;102445.78;6089609;28;20032;-76
2024/01/31 01:31:05;;;;;;;6.72;1.70;;;;;;;5.92;100.00;102416.97;6068940;28;20068;-76
2024/01/31 01:34:08;;;;;;;3.72;1.63;;;;;;;5.94;100.00;102448.50;6075267;28;20476;-75
2024/01/31 01:37:13;;;;;;;4.85;1.80;;;;;;;5.91;100.00;102444.25;6095840;28;20033;-76
2024/01/31 01:40:53;;;;;;;4.28;1.55;;;;;;;5.92;100.00;102464.34;6082233;28;20051;-76
2024/01/31 01:43:49;;;;;;;5.32;1.92;;;;;;;5.76;100.00;102438.84;6079555;28;20392;-75
2024/01/31 01:46:45;;;;;;;3.73;1.60;;;;;;;5.75;100.00;102440.59;6093782;28;20036;-76
2024/01/31 01:49:41;;;;;;;5.65;1.83;;;;;;;5.65;100.00;102441.97;6068243;28;20080;-76
2024/01/31 01:52:37;;;;;;;4.20;2.00;;;;;;;5.75;100.00;102466.91;6100460;28;20058;-78
2024/01/31 01:55:33;;;;;;;5.00;1.45;;;;;;;5.69;100.00;102459.31;6102815;28;20029;-76
2024/01/31 01:58:37;;;;;;;4.50;1.43;;;;;;;5.55;100.00;102456.47;6079868;28;20032;-78
2024/01/31 02:01:39;;;;;;;4.10;1.40;;;;;;;5.49;100.00;102461.16;6078108;28;20774;-77
2024/01/31 02:04:37;;;;;;;4.15;1.65;;;;;;;5.36;100.00;102458.22;6091109;28;20033;-76
2024/01/31 02:07:34;;;;;;;2.63;0.80;;;;;;;5.48;100.00;102497.16;6089982;28;20033;-76
2024/01/31 02:10:29;;;;;;;2.92;1.02;;;;;;;5.31;100.00;102491.78;6096863;28;20102;-75
2024/01/31 02:13:25;;;;;;;2.17;0.87;;;;;;;5.23;100.00;102491.25;6097838;28;20480;-76
2024/01/31 02:16:20;;;;;;;2.50;1.10;;;;;;;5.13;100.00;102495.22;6097282;28;20115;-76
2024/01/31 02:19:15;;;;;;;1.73;0.77;;;;;;;5.09;100.00;102510.28;6100287;28;20108;-75
2024/01/31 02:22:16;;;;;;;3.77;1.37;;;;;;;5.13;100.00;102521.53;6099539;28;20125;-75
2024/01/31 02:25:13;;;;;;;3.70;1.20;;;;;;;5.06;100.00;102514.81;6099723;28;20108;-77
2024/01/31 02:28:09;;;;;;;3.75;1.38;;;;;;;4.95;100.00;102507.38;6094847;28;20119;-76
2024/01/31 02:31:04;;;;;;;2.67;1.10;;;;;;;4.97;100.00;102523.09;6099345;28;20035;-78
2024/01/31 02:33:59;;;;;;;3.87;1.33;;;;;;;4.97;100.00;102518.72;6101966;28;20044;-76
2024/01/31 02:36:55;;;;;;;3.67;1.40;;;;;;;4.97;100.00;102523.09;6100517;28;20067;-77
2024/01/31 02:39:50;;;;;;;2.97;1.30;;;;;;;4.82;100.00;102514.09;6099771;28;20037;-76
2024/01/31 02:42:45;;;;;;;3.25;1.35;;;;;;;4.75;100.00;102518.78;6099585;28;20221;-74
2024/01/31 02:45:41;;;;;;;5.00;1.40;;;;;;;4.78;100.00;102526.50;6086089;28;20037;-78
2024/01/31 02:48:36;;;;;;;6.60;1.73;;;;;;;4.53;100.00;102510.06;6091275;28;20075;-76
2024/01/31 02:51:31;;;;;;;4.50;0.90;;;;;;;4.52;100.00;102529.34;6096522;28;20786;-77
2024/01/31 02:54:27;;;;;;;2.40;1.10;;;;;;;4.55;100.00;102534.50;6086284;28;20272;-77
2024/01/31 02:57:22;;;;;;;2.43;0.90;;;;;;;4.38;100.00;102509.81;6090703;28;20477;-76
2024/01/31 03:00:17;;;;;;;2.15;0.73;;;;;;;4.41;100.00;102531.56;6098663;28;20515;-77
2024/01/31 03:03:13;;;;;;;2.73;1.57;;;;;;;4.54;100.00;102539.81;6100917;28;20029;-77
2024/01/31 03:06:08;;;;;;;2.90;0.80;;;;;;;4.58;100.00;102551.91;6099318;28;20831;-76
2024/01/31 03:09:04;;;;;;;1.60;0.73;;;;;;;4.45;100.00;102543.66;6096005;28;20198;-77
2024/01/31 03:12:00;;;;;;;1.63;0.40;;;;;;;4.42;100.00;102535.91;6082400;28;20056;-78
2024/01/31 03:15:07;;;;;;;4.30;0.70;;;;;;;4.49;100.00;102542.63;6087940;28;20480;-77
2024/01/31 03:18:03;;;;;;;4.95;0.98;;;;;;;4.47;100.00;102544.47;6084078;28;20032;-76
2024/01/31 03:21:06;;;;;;;1.52;0.30;;;;;;;4.49;100.00;102545.25;6066888;28;20040;-78
2024/01/31 03:24:15;;;;;;;1.30;0.70;;;;;;;4.45;100.00;102541.03;6065017;28;20044;-76
2024/01/31 03:27:33;;;;;;;1.75;0.75;;;;;;;4.61;100.00;102554.41;6083855;28;20035;-78
2024/01/31 03:30:29;;;;;;;0.88;0.43;;;;;;;4.49;100.00;102531.25;6066031;28;20499;-76
2024/01/31 03:33:27;;;;;;;0.63;0.43;;;;;;;4.67;100.00;102560.25;6096467;28;20044;-78
2024/01/31 03:36:24;;;;;;;1.73;0.38;;;;;;;4.69;100.00;102545.28;6062254;28;20021;-77
2024/01/31 03:39:20;;;;;;;2.70;0.68;;;;;;;4.62;100.00;102541.19;6070182;28;20546;-77
2024/01/31 03:42:38;;;;;;;1.20;0.45;;;;;;;4.77;100.00;102572.09;6069871;28;20025;-78
2024/01/31 03:45:33;;;;;;;0.68;0.40;;;;;;;4.69;100.00;102566.31;6066858;28;20032;-76
2024/01/31 03:48:30;;;;;;;1.80;0.30;;;;;;;4.64;100.00;102555.16;6098288;28;20029;-77
2024/01/31 03:51:35;;;;;;;2.47;0.82;;;;;;;4.68;100.00;102567.22;6082953;28;20288;-79
2024/01/31 03:54:30;;;;;;;2.30;0.68;;;;;;;4.64;100.00;102560.41;6065134;28;20077;-77
2024/01/31 03:57:28;;;;;;;1.57;0.70;;;;;;;4.59;100.00;102562.31;6082043;28;20365;-78
2024/01/31 04:00:27;;;;;;;1.30;0.47;;;;;;;4.60;100.00;102555.31;6084875;28;20068;-78
2024/01/31 04:03:32;;;;;;;2.65;0.57;;;;;;;4.61;100.00;102557.88;6084124;28;20029;-77
2024/01/31 04:06:29;;;;;;;2.72;1.00;;;;;;;4.61;100.00;102564.91;6063718;28;20033;-79
2024/01/31 04:09:39;;;;;;;1.70;0.50;;;;;;;4.46;100.00;102542.72;6062137;28;20025;-78
2024/01/31 04:12:35;;;;;;;1.13;0.45;;;;;;;4.61;100.00;102560.53;6369705;22;21101;-78
2024/01/31 04:15:30;;;;;;;1.57;0.67;;;;;;;4.65;100.00;102566.47;6071097;28;20041;-76
2024/01/31 04:18:25;;;;;;;1.20;0.40;;;;;;;4.65;100.00;102571.72;6070767;28;20060;-77
2024/01/31 04:21:24;;;;;;;6.20;0.60;;;;;;;4.54;100.00;102547.69;6072278;28;20120;-77
2024/01/31 04:24:23;;;;;;;1.15;0.40;;;;;;;4.56;100.00;102551.97;6071800;28;20037;-78
2024/01/31 04:28:08;;;;;;;1.33;0.50;;;;;;;4.66;100.00;102578.72;6072902;28;20503;-79
2024/01/31 04:31:04;;;;;;;1.08;0.50;;;;;;;4.54;100.00;102564.28;6068025;28;20493;-77
2024/01/31 04:34:05;;;;;;;1.73;0.80;;;;;;;4.39;100.00;102536.03;6053550;28;20033;-78
2024/01/31 04:37:18;;;;;;;2.08;0.68;;;;;;;4.36;100.00;102536.16;6073696;28;20107;-78
2024/01/31 04:40:32;;;;;;;2.97;0.60;;;;;;;4.48;100.00;102564.56;6065386;28;20026;-77
2024/01/31 04:43:44;;;;;;;1.92;0.50;;;;;;;4.50;100.00;102560.09;6071692;28;20021;-76
2024/01/31 04:47:05;;;;;;;3.00;0.90;;;;;;;4.65;100.00;102580.47;6056073;28;20029;-78
2024/01/31 05:10:04;;;;;;;6.45;1.52;;;;;;;4.29;100.00;102589.84;6025105;28;20513;-78
2024/01/31 05:16:57;;;;;;;3.88;1.83;;;;;;;4.29;100.00;102605.59;6013928;28;20592;-79
2024/01/31 05:19:52;;;;;;;4.70;1.40;;;;;;;4.15;100.00;102595.63;6012503;28;20070;-78
2024/01/31 05:22:48;;;;;;;3.50;1.47;;;;;;;4.15;100.00;102597.38;6045119;28;20081;-78
2024/01/31 05:25:45;;;;;;;4.17;1.47;;;;;;;4.24;100.00;102607.50;6072594;28;20056;-77
2024/01/31 05:30:02;;;;;;;;;;;;;;;;;;;;;
2024/01/31 05:32:58;;;;;;;3.58;1.25;;;;;;;4.20;100.00;102629.56;6065355;28;20128;-78
2024/01/31 05:36:03;;;;;;;5.32;1.20;;;;;;;4.07;100.00;102609.94;6072899;28;20029;-79
2024/01/31 05:39:17;;;;;;;3.90;1.55;;;;;;;4.00;100.00;102597.94;6051312;28;20102;-79
2024/01/31 05:42:18;;;;;;;4.18;1.30;;;;;;;4.03;100.00;102596.06;6067898;28;20480;-77
2024/01/31 05:46:18;;;;;;;4.55;1.45;;;;;;;4.25;100.00;102643.38;6071804;28;20030;-78
2024/01/31 05:49:17;;;;;;;2.38;1.00;;;;;;;4.03;100.00;102601.31;6066782;28;20025;-78
2024/01/31 05:56:04;;;;;;;0.82;0.35;;;;;;;4.22;100.00;102623.34;6063442;28;20030;-77
2024/01/31 05:58:59;;;;;;;3.08;0.80;;;;;;;4.07;100.00;102600.31;6066111;28;20046;-79
2024/01/31 06:02:01;;;;;;;2.95;0.65;;;;;;;4.12;100.00;102618.50;6072071;28;20432;-78
2024/01/31 06:05:01;;;;;;;1.13;0.40;;;;;;;4.20;100.00;102621.69;6070673;28;20432;-78
2024/01/31 06:07:56;;;;;;;2.05;0.70;;;;;;;4.08;100.00;102607.25;6066084;28;20027;-79
2024/01/31 06:14:18;;;;;;;1.70;0.70;;;;;;;4.13;100.00;102607.09;6069303;28;20435;-77
2024/01/31 06:17:14;;;;;;;1.98;0.93;;;;;;;4.14;100.00;102622.78;6067683;28;20026;-77
2024/01/31 06:24:02;;;;;;;2.10;0.80;;;;;;;4.13;100.00;102635.97;6070140;28;20112;-78
2024/01/31 06:27:03;;;;;;;3.47;0.80;;;;;;;4.09;100.00;102642.25;6071027;28;20025;-79
2024/01/31 06:30:19;;;;;;;2.22;0.80;;;;;;;3.92;100.00;102621.88;6070917;28;20116;-78
2024/01/31 06:33:17;;;;;;;4.53;1.13;;;;;;;4.04;100.00;102652.06;6067433;28;20032;-77
2024/01/31 06:36:53;;;;;;;;;;;;;;;;;;;;;
2024/01/31 06:40:09;;;;;;;2.38;0.77;;;;;;;3.95;100.00;102636.63;6065988;28;20563;-78
2024/01/31 06:43:04;;;;;;;1.45;0.80;;;;;;;3.91;100.00;102629.81;6072844;28;20076;-79
2024/01/31 06:46:02;;;;;;;1.63;0.50;;;;;;;4.01;100.00;102646.91;6069995;28;20026;-78
2024/01/31 06:48:58;;;;;;;3.22;0.93;;;;;;;4.11;100.00;102669.28;6071917;28;20290;-78
2024/01/31 06:51:54;;;;;;;1.60;0.85;;;;;;;3.97;100.00;102645.31;6055709;28;20358;-78
2024/01/31 06:54:49;;;;;;;3.93;1.57;;;;;;;3.99;100.00;102654.00;6074199;28;20087;-76
2024/01/31 06:57:48;;;;;;;3.90;1.77;;;;;;;3.96;100.00;102638.38;6073087;28;20064;-77
2024/01/31 07:01:01;;;;;;;3.97;1.45;;;;;;;3.99;100.00;102644.38;6070578;28;20044;-77
2024/01/31 07:03:57;;;;;;;2.80;1.30;;;;;;;3.97;100.00;102645.31;6073195;28;20044;-76
2024/01/31 07:11:25;;;;;;;;;;;;;;;4.15;100.00;102686.66;6012874;28;20034;-78
2024/01/31 07:14:20;;;;;;;2.25;0.90;;;;;;;3.98;100.00;102668.88;6007308;28;19924;-76
2024/01/31 07:21:10;;;;;;;5.82;1.30;;;;;;;4.10;100.00;102683.34;5964024;28;20042;-78
2024/01/31 07:24:34;;;;;;;3.03;1.35;;;;;;;3.92;100.00;102663.84;5999431;28;20038;-79
2024/01/31 07:28:05;;;;;;;3.72;1.45;;;;;;;3.94;100.00;102687.44;5924861;29;20040;-77
2024/01/31 07:31:02;;;;;;;3.05;1.23;;;;;;;4.02;100.00;102706.38;5971104;28;20130;-79
2024/01/31 07:33:59;;;;;;;3.88;1.20;;;;;;;4.02;100.00;102703.75;5981660;28;20042;-77
2024/01/31 07:37:18;;;;;;;2.63;0.90;;;;;;;4.12;100.00;102718.25;5981872;28;20166;-76
2024/01/31 07:44:17;;;;;;;2.50;0.88;;;;;;;3.92;100.00;102686.59;5996125;28;20050;-75
2024/01/31 07:47:12;;;;;;;4.22;1.33;;;;;;;3.87;100.00;102696.41;6043201;28;20048;-76
2024/01/31 07:50:40;;;;;;;3.60;1.53;;;;;;;4.10;100.00;102734.03;6072662;28;20049;-79
2024/01/31 07:54:05;;;;;;;3.80;1.80;;;;;;;3.98;100.00;102717.88;6055022;28;20044;-77
2024/01/31 07:57:19;;;;;;;3.72;1.50;;;;;;;3.93;100.00;102706.69;6070069;28;20733;-77
2024/01/31 08:04:24;;;;;;;4.28;1.40;;;;;;;4.11;100.00;102737.53;6071460;28;20160;-78
2024/01/31 08:07:34;;;;;;;2.10;0.88;;;;;;;3.88;100.00;102701.63;5983952;28;20042;-78
2024/01/31 08:10:59;;;;;;;3.08;0.95;;;;;;;4.09;100.00;102736.75;5966882;28;20035;-76
2024/01/31 08:14:47;;;;;;;3.83;1.00;;;;;;;3.93;100.00;102709.31;5983761;28;20046;-77
2024/01/31 08:18:00;;;;;;;2.08;0.60;;;;;;;3.99;100.00;102696.00;5912939;29;20047;-76
2024/01/31 08:20:56;;;;;;;4.57;1.38;;;;;;;4.04;100.00;102707.19;6158694;23;20344;-76
2024/01/31 08:24:06;;;;;;;3.38;1.20;;;;;;;4.02;100.00;102707.22;6048852;28;20080;-77
2024/01/31 08:27:02;;;;;;;3.47;1.40;;;;;;;4.09;100.00;102723.59;6014985;28;20034;-77
2024/01/31 08:29:57;;;;;;;4.00;1.58;;;;;;;4.09;100.00;102729.72;6030227;28;20507;-76
2024/01/31 08:32:57;;;;;;;3.03;0.90;;;;;;;4.02;100.00;102720.34;6052033;28;20026;-77
2024/01/31 08:39:25;;;;;;;3.03;1.13;;;;;;;4.18;100.00;102741.66;6471454;23;20077;-76
2024/01/31 08:43:13;;;;;;;2.77;1.03;;;;;;;4.24;100.00;102725.66;6061653;28;20369;-78
2024/01/31 08:54:25;;;;;;;1.98;0.90;;;;;;;4.31;100.00;102742.06;5939759;29;20040;-78
2024/01/31 08:57:50;;;;;;;2.85;0.82;;;;;;;4.18;100.00;102712.78;5946551;28;20166;-77
2024/01/31 09:01:39;;;;;;;3.10;0.65;;;;;;;4.36;100.00;102759.38;5986694;28;20405;-77
2024/01/31 09:08:28;;;;;;;2.40;1.20;;;;;;;4.35;100.00;102741.06;5929114;29;20056;-77
2024/01/31 09:11:24;;;;;;;4.63;0.90;;;;;;;4.33;100.00;102725.34;5908427;29;20048;-77
2024/01/31 09:14:22;;;;;;;2.90;1.08;;;;;;;4.41;100.00;102736.41;5897673;29;20378;-77
2024/01/31 09:17:23;;;;;;;2.63;0.90;;;;;;;4.36;100.00;102722.59;5952592;28;20092;-78
2024/01/31 09:20:30;;;;;;;1.33;0.63;;;;;;;4.33;100.00;102725.34;5984417;28;20034;-78
2024/01/31 09:23:26;;;;;;;3.65;1.00;;;;;;;4.43;100.00;102739.84;5998451;28;20134;-76
2024/01/31 09:26:31;;;;;;;2.40;1.08;;;;;;;4.41;100.00;102730.31;6012959;28;20038;-77
2024/01/31 09:29:26;;;;;;;0.82;0.60;;;;;;;4.38;100.00;102736.53;6006180;28;20046;-76
2024/01/31 09:32:55;;;;;;;3.00;0.80;;;;;;;4.57;100.00;102768.22;6039788;28;20052;-79
2024/01/31 09:35:54;;;;;;;1.85;0.65;;;;;;;4.53;100.00;102764.88;6020295;28;20396;-76
2024/01/31 09:46:03;;;;;;;3.15;1.00;;;;;;;4.54;100.00;102779.69;6017510;28;20519;-77
2024/01/31 09:49:03;;;;;;;5.53;1.13;;;;;;;4.43;100.00;102768.72;6027513;28;20083;-77
2024/01/31 09:52:03;;;;;;;2.50;1.00;;;;;;;4.53;100.00;102783.25;6044360;28;20041;-77
2024/01/31 09:55:00;;;;;;;6.47;1.92;;;;;;;4.54;100.00;102773.63;6026091;28;20050;-76
2024/01/31 10:01:32;;;;;;;2.10;0.93;;;;;;;4.36;100.00;102748.88;6008768;28;20046;-76
2024/01/31 10:04:30;;;;;;;3.17;0.88;;;;;;;4.55;100.00;102765.66;6024864;28;20033;-76
2024/01/31 10:07:29;;;;;;;2.72;0.60;;;;;;;4.44;100.00;102752.06;6042348;28;20037;-75
2024/01/31 10:10:29;;;;;;;2.58;1.00;;;;;;;4.41;100.00;102767.06;6045698;28;20041;-77
2024/01/31 10:13:24;;;;;;;2.63;0.88;;;;;;;4.41;100.00;102753.94;6012441;28;20398;-75
2024/01/31 10:19:55;;;;;;;2.03;0.98;;;;;;;4.40;100.00;102739.97;6046167;28;20037;-76
2024/01/31 10:22:50;;;;;;;2.80;1.00;;;;;;;4.62;100.00;102746.13;6011201;28;20076;-77
2024/01/31 10:25:46;;;;;;;2.63;1.20;;;;;;;4.57;100.00;102734.06;6048970;28;20065;-76
2024/01/31 10:28:41;;;;;;;3.55;0.90;;;;;;;4.56;100.00;102722.72;6051683;28;20029;-77
2024/01/31 10:31:40;;;;;;;2.45;1.08;;;;;;;4.64;100.00;102723.28;6032916;28;20030;-78
2024/01/31 10:34:37;;;;;;;2.28;0.90;;;;;;;4.68;100.00;102722.25;6048690;28;20108;-77
2024/01/31 10:37:51;;;;;;;3.25;1.13;;;;;;;4.62;100.00;102701.44;6027570;28;20042;-78
2024/01/31 10:40:48;;;;;;;1.70;0.80;;;;;;;4.77;100.00;102708.75;6029514;28;20034;-78
2024/01/31 10:43:46;;;;;;;2.47;0.82;;;;;;;4.73;100.00;102694.00;6004493;28;20524;-77
2024/01/31 10:46:45;;;;;;;4.00;0.98;;;;;;;4.72;100.00;102694.94;6013234;28;20036;-78
2024/01/31 10:49:41;;;;;;;4.55;1.10;;;;;;;4.82;100.00;102711.19;6027475;28;20026;-77
2024/01/31 10:53:13;;;;;;;5.80;1.00;;;;;;;4.81;100.00;102702.44;6007903;28;20037;-77
2024/01/31 10:56:12;;;;;;;2.88;1.00;;;;;;;4.81;100.00;102706.84;6018773;28;20401;-77
2024/01/31 10:59:08;;;;;;;2.35;1.40;;;;;;;4.70;100.00;102680.16;6033424;28;20084;-78
2024/01/31 11:02:35;;;;;;;1.88;0.90;;;;;;;4.97;100.00;102694.84;6017917;28;20033;-77
2024/01/31 11:05:41;;;;;;;2.33;1.20;;;;;;;4.90;100.00;102676.72;6013101;28;20366;-75
2024/01/31 11:09:24;;;;;;;2.25;0.93;;;;;;;4.76;100.00;102643.97;6011073;28;20029;-76
2024/01/31 11:12:26;;;;;;;2.35;1.05;;;;;;;4.68;100.00;102635.53;5949301;29;20047;-77
2024/01/31 11:15:43;;;;;;;1.42;0.93;;;;;;;4.77;100.00;102637.81;5984328;28;20055;-78
2024/01/31 11:18:39;;;;;;;5.63;1.20;;;;;;;4.92;100.00;102646.81;5991062;28;20047;-76
2024/01/31 11:25:43;;;;;;;2.25;0.95;;;;;;;4.71;100.00;102639.81;6040655;28;20053;-77
2024/01/31 11:28:52;;;;;;;2.28;0.80;;;;;;;4.70;100.00;102633.69;6053968;28;20485;-77
2024/01/31 11:32:13;;;;;;;1.15;0.63;;;;;;;4.76;100.00;102624.72;6023459;28;20485;-77
2024/01/31 11:35:09;;;;;;;1.20;0.80;;;;;;;4.79;100.00;102628.06;6024377;28;20046;-77
2024/01/31 11:38:08;;;;;;;1.48;0.63;;;;;;;4.86;100.00;102636.59;6056519;28;20048;-77
2024/01/31 11:41:04;;;;;;;0.80;0.65;;;;;;;4.93;100.00;102631.91;6034874;28;20033;-76
2024/01/31 11:44:00;;;;;;;2.28;1.10;;;;;;;4.80;100.00;102605.28;6050044;28;20037;-77
2024/01/31 11:47:04;;;;;;;2.97;1.00;;;;;;;4.87;100.00;102608.50;6013921;28;20041;-79
2024/01/31 11:50:15;;;;;;;1.98;1.00;;;;;;;4.91;100.00;102610.97;6014876;28;20052;-78
2024/01/31 12:00:14;;;;;;;3.25;0.90;;;;;;;5.15;100.00;102603.81;6006686;28;20080;-75
2024/01/31 12:03:11;;;;;;;1.80;0.95;;;;;;;5.00;100.00;102586.06;6025789;28;20041;-75
2024/01/31 12:06:16;;;;;;;5.32;1.30;;;;;;;4.96;100.00;102592.38;6016801;28;20474;-78
2024/01/31 12:09:13;;;;;;;2.35;1.00;;;;;;;4.85;100.00;102568.28;6030224;28;20030;-75
2024/01/31 12:12:09;;;;;;;16.63;5.85;;;;;;;4.99;100.00;102586.97;6040060;28;20553;-77
2024/01/31 12:15:17;;;;;;;1.85;1.00;;;;;;;5.02;100.00;102586.84;6031999;28;20096;-77
2024/01/31 12:18:41;;;;;;;1.77;1.35;;;;;;;4.98;100.00;102590.50;6011523;28;20033;-79
2024/01/31 12:22:11;;;;;;;1.30;0.95;;;;;;;4.78;100.00;102559.81;6034279;28;20066;-76
2024/01/31 12:28:59;;;;;;;2.30;1.15;;;;;;;4.84;100.00;102561.34;6044350;28;20433;-77
2024/01/31 12:31:54;;;;;;;5.28;1.40;;;;;;;4.91;100.00;102581.19;6031668;28;20036;-77
2024/01/31 12:35:17;;;;;;;3.17;1.70;;;;;;;4.97;100.00;102573.06;6031933;28;20432;-78
2024/01/31 12:38:46;;;;;;;4.25;1.48;;;;;;;4.77;100.00;102545.84;6015863;28;20065;-77
2024/01/31 12:41:42;;;;;;;3.72;1.73;;;;;;;5.00;100.00;102559.78;5921189;29;20044;-77
2024/01/31 12:44:52;;;;;;;5.03;1.60;;;;;;;5.11;100.00;102555.75;5935662;29;20040;-78
2024/01/31 12:52:04;;;;;;;2.75;1.40;;;;;;;4.99;100.00;102508.13;5885606;29;20044;-77
2024/01/31 12:55:22;;;;;;;2.40;1.50;;;;;;;4.99;100.00;102497.59;5931057;29;20046;-77
2024/01/31 12:58:18;;;;;;;3.05;1.30;;;;;;;5.06;100.00;102510.41;5900429;29;20044;-77
2024/01/31 13:01:14;;;;;;;3.13;1.63;;;;;;;5.08;100.00;102518.25;5955330;28;20114;-76
2024/01/31 13:04:16;;;;;;;3.40;1.55;;;;;;;5.02;100.00;102508.84;6028706;28;20034;-77
2024/01/31 13:07:34;;;;;;;2.75;1.58;;;;;;;5.06;100.00;102493.78;6028166;28;20045;-79
2024/01/31 13:10:40;;;;;;;3.05;1.70;;;;;;;5.23;100.00;102502.66;5982349;28;20485;-79
2024/01/31 13:14:28;;;;;;;3.10;1.60;;;;;;;5.31;100.00;102483.88;6046395;28;20620;-76
2024/01/31 13:17:33;;;;;;;2.85;1.65;;;;;;;5.07;100.00;102461.31;6035635;28;20028;-78
2024/01/31 13:20:38;;;;;;;3.55;1.77;;;;;;;5.14;100.00;102454.84;6044953;28;20116;-77
2024/01/31 13:23:39;;;;;;;3.22;1.98;;;;;;;5.06;100.00;102454.34;6047110;28;20145;-78
2024/01/31 13:26:35;;;;;;;;;;;;;;;5.15;100.00;102456.56;6031531;28;20037;-77
2024/01/31 13:29:34;;;;;;;4.82;2.40;;;;;;;5.24;100.00;102450.91;6051345;28;20015;-76
2024/01/31 13:32:30;;;;;;;4.07;2.03;;;;;;;5.15;100.00;102432.91;6010203;28;20030;-78
2024/01/31 13:35:44;;;;;;;5.20;2.20;;;;;;;5.12;100.00;102412.00;6046262;28;20104;-77
2024/01/31 13:38:49;;;;;;;6.18;2.65;;;;;;;5.18;100.00;102409.09;6027333;28;20080;-76
2024/01/31 13:41:47;;;;;;;5.20;2.33;;;;;;;5.24;100.00;102421.97;6044493;28;20034;-78
2024/01/31 13:44:48;;;;;;;5.03;2.17;;;;;;;5.27;100.00;102440.25;6050737;28;20548;-75
2024/01/31 13:47:50;;;;;;;5.72;2.30;;;;;;;5.24;100.00;102443.88;6035085;28;20030;-77
2024/01/31 13:50:48;;;;;;;4.68;2.25;;;;;;;5.15;100.00;102403.97;6013953;28;20109;-77
2024/01/31 13:53:47;;;;;;;5.13;2.20;;;;;;;5.09;100.00;102391.97;6045861;28;20026;-76
2024/01/31 13:57:26;;;;;;;5.43;2.03;;;;;;;5.24;100.00;102437.75;6037605;28;20490;-77
2024/01/31 14:00:21;;;;;;;5.82;2.55;;;;;;;5.17;100.00;102412.66;6026939;28;20029;-76
2024/01/31 14:03:17;;;;;;;4.70;2.25;;;;;;;5.05;100.00;102386.94;6035543;28;20092;-76
2024/01/31 14:07:06;;;;;;;5.97;2.20;;;;;;;5.27;100.00;102411.31;6039947;28;20125;-76
2024/01/31 14:13:56;;;;;;;6.78;2.70;;;;;;;5.30;100.00;102413.78;5960089;28;20071;-76
2024/01/31 14:17:14;;;;;;;7.18;3.00;;;;;;;5.34;100.00;102404.84;6035138;28;20045;-79
2024/01/31 14:20:24;;;;;;;8.43;3.05;;;;;;;5.34;100.00;102392.56;6032729;28;20029;-75
2024/01/31 14:24:00;;;;;;;8.20;3.53;;;;;;;5.37;100.00;102410.81;6022042;28;20180;-78
2024/01/31 14:26:55;;;;;;;7.47;3.58;;;;;;;5.22;100.00;102363.31;6033713;28;20116;-75
2024/01/31 14:29:57;;;;;;;9.20;4.00;;;;;;;5.37;100.00;102388.94;6052027;28;20096;-77
2024/01/31 14:32:57;;;;;;;10.00;3.95;;;;;;;5.29;100.00;102396.31;6054977;28;20117;-77
2024/01/31 14:35:59;;;;;;;10.30;4.40;;;;;;;5.41;100.00;102401.00;6020897;28;20059;-78
2024/01/31 14:38:54;;;;;;;9.90;4.50;;;;;;;5.26;100.00;102381.53;6041105;28;20031;-76
2024/01/31 14:41:53;;;;;;;8.95;4.15;;;;;;;5.19;100.00;102372.22;6055444;28;20044;-76
2024/01/31 14:44:51;;;;;;;10.80;4.90;;;;;;;5.15;100.00;102361.91;6052494;28;20116;-78
2024/01/31 14:48:11;;;;;;;8.85;4.43;;;;;;;5.28;100.00;102373.56;6019317;28;20088;-76
2024/01/31 14:55:14;;;;;;;8.32;4.05;;;;;;;5.27;100.00;102367.44;5958784;29;20039;-76
2024/01/31 14:58:56;;;;;;;8.65;5.05;;;;;;;5.37;100.00;102368.75;5923349;29;20044;-78
2024/01/31 15:02:21;;;;;;;8.75;4.65;;;;;;;5.13;100.00;102326.97;5951549;29;20048;-77
2024/01/31 15:05:38;;;;;;;11.25;4.70;;;;;;;5.27;100.00;102354.28;5952872;29;20043;-78
2024/01/31 15:08:40;;;;;;;11.30;4.18;;;;;;;5.09;100.00;102304.34;5921658;29;20051;-76
2024/01/31 15:12:10;;;;;;;8.40;4.30;;;;;;;5.34;100.00;102333.84;5958286;29;20043;-78
2024/01/31 15:15:12;;;;;;;7.30;4.25;;;;;;;5.28;100.00;102326.22;5923392;29;20063;-77
2024/01/31 15:22:01;;;;;;;8.90;4.65;;;;;;;5.34;100.00;102331.19;5985925;28;20495;-78
2024/01/31 15:25:15;;;;;;;8.35;4.07;;;;;;;5.05;100.00;102287.88;5989966;28;20050;-77
2024/01/31 15:28:10;;;;;;;9.55;4.18;;;;;;;5.15;100.00;102310.19;6037848;28;20033;-77
2024/01/31 15:31:37;;;;;;;8.20;3.80;;;;;;;5.29;100.00;102317.41;6053323;28;20040;-77
2024/01/31 15:35:23;;;;;;;6.50;3.67;;;;;;;5.24;100.00;102316.78;6034063;28;20026;-78
2024/01/31 15:38:28;;;;;;;8.85;3.95;;;;;;;5.27;100.00;102290.34;6036540;28;20055;-78
2024/01/31 15:41:25;;;;;;;5.53;3.40;;;;;;;5.22;100.00;102280.03;6049576;28;20038;-78
2024/01/31 15:45:01;;;;;;;6.65;2.88;;;;;;;5.23;100.00;102275.63;6037936;28;20514;-78
2024/01/31 15:48:09;;;;;;;7.82;3.33;;;;;;;5.09;100.00;102247.38;6054498;28;20029;-79
2024/01/31 15:51:04;;;;;;;4.93;3.00;;;;;;;5.14;100.00;102255.03;6051781;28;20036;-77
2024/01/31 15:54:14;;;;;;;7.25;3.47;;;;;;;5.02;100.00;102243.34;6058274;28;20378;-77
2024/01/31 15:57:27;;;;;;;6.35;3.63;;;;;;;5.00;100.00;102233.81;6016623;28;20029;-78
2024/01/31 16:01:04;;;;;;;7.20;3.15;;;;;;;5.09;100.00;102236.84;6048621;28;20116;-77
2024/01/31 16:04:00;;;;;;;6.20;3.00;;;;;;;4.95;100.00;102217.41;6048379;28;20035;-77
2024/01/31 16:07:30;;;;;;;7.72;3.25;;;;;;;4.96;100.00;102224.38;6012494;28;20037;-77
2024/01/31 16:10:37;;;;;;;5.65;2.92;;;;;;;4.87;100.00;102198.50;6026154;28;20026;-77
2024/01/31 16:13:37;;;;;;;7.47;3.70;;;;;;;4.94;100.00;102205.19;6033573;28;20048;-77
2024/01/31 16:16:39;;;;;;;7.15;3.70;;;;;;;4.90;100.00;102195.75;6021411;28;20029;-78
2024/01/31 16:19:42;;;;;;;6.55;3.88;;;;;;;4.89;100.00;102197.53;6052295;28;20064;-76
2024/01/31 16:26:02;;;;;;;5.80;2.92;;;;;;;4.98;100.00;102201.47;6040814;28;20091;-77